Terminal Aerodrome Forecast
Issued by NWS

Home | Current Version | Previous Version | Text Only | Print | Product List | Glossary On
Versions: 1 2 3 4 5 6 7 8 9 10 11 12 13 14 15 16 17 18 19 20 21 22 23 24 25 26 27 28 29
000
FTUS41 KOKX 052000 AAA
TAFGON
TAF AMD
KGON 052035Z 0521/0618 32012G18KT 2SM -SN BR SCT008 OVC017
      TEMPO 0521/0523 3/4SM -SN OVC008
     FM052300 33012KT 4SM -SN BR BKN020 OVC050
     FM060200 35010KT P6SM SCT020 BKN050
     FM061000 36006KT P6SM FEW050=

USA.gov is the U.S. government's official web portal to all federal, state and local government web resources and services.